sensor_id;sensor_type;location;lat;lon;timestamp;temperature;humidity
20418;DHT22;10368;51.436;6.774;2023-04-30T00:47:08;15.70;99.90
20418;DHT22;10368;51.436;6.774;2023-04-30T00:49:35;9.90;99.90
20418;DHT22;10368;51.436;6.774;2023-04-30T00:52:02;9.70;99.90
20418;DHT22;10368;51.436;6.774;2023-04-30T00:54:29;9.50;99.90
20418;DHT22;10368;51.436;6.774;2023-04-30T00:56:57;9.60;99.90
20418;DHT22;10368;51.436;6.774;2023-04-30T02:08:54;9.50;99.90
20418;DHT22;10368;51.436;6.774;2023-04-30T02:11:22;8.90;99.90
20418;DHT22;10368;51.436;6.774;2023-04-30T02:13:50;8.90;99.90
20418;DHT22;10368;51.436;6.774;2023-04-30T02:16:17;9.00;99.90
20418;DHT22;10368;51.436;6.774;2023-04-30T02:18:44;8.90;99.90
20418;DHT22;10368;51.436;6.774;2023-04-30T04:11:50;8.90;99.90
20418;DHT22;10368;51.436;6.774;2023-04-30T04:14:16;7.90;99.90
20418;DHT22;10368;51.436;6.774;2023-04-30T04:16:43;8.00;99.90
20418;DHT22;10368;51.436;6.774;2023-04-30T08:00:46;7.90;99.90
20418;DHT22;10368;51.436;6.774;2023-04-30T08:03:13;11.70;99.90
20418;DHT22;10368;51.436;6.774;2023-04-30T08:05:40;12.00;99.90
20418;DHT22;10368;51.436;6.774;2023-04-30T08:08:07;11.90;99.90
20418;DHT22;10368;51.436;6.774;2023-04-30T08:10:34;11.90;99.90
20418;DHT22;10368;51.436;6.774;2023-04-30T08:13:03;11.90;99.90
20418;DHT22;10368;51.436;6.774;2023-04-30T08:15:32;12.00;99.90
20418;DHT22;10368;51.436;6.774;2023-04-30T08:17:59;12.00;99.90
20418;DHT22;10368;51.436;6.774;2023-04-30T08:20:26;12.10;99.90
20418;DHT22;10368;51.436;6.774;2023-04-30T08:22:53;12.20;99.90
20418;DHT22;10368;51.436;6.774;2023-04-30T08:25:20;12.20;99.90
20418;DHT22;10368;51.436;6.774;2023-04-30T08:27:46;12.20;99.90
20418;DHT22;10368;51.436;6.774;2023-04-30T08:30:15;12.20;99.90
20418;DHT22;10368;51.436;6.774;2023-04-30T08:32:42;12.20;99.90
20418;DHT22;10368;51.436;6.774;2023-04-30T08:35:09;12.30;99.90
20418;DHT22;10368;51.436;6.774;2023-04-30T08:37:36;12.40;99.90
20418;DHT22;10368;51.436;6.774;2023-04-30T08:40:03;12.40;99.90
20418;DHT22;10368;51.436;6.774;2023-04-30T08:42:31;12.50;99.90
20418;DHT22;10368;51.436;6.774;2023-04-30T08:45:02;12.50;99.90
20418;DHT22;10368;51.436;6.774;2023-04-30T08:47:30;12.70;99.90
20418;DHT22;10368;51.436;6.774;2023-04-30T08:49:57;12.60;99.90
20418;DHT22;10368;51.436;6.774;2023-04-30T08:52:25;12.70;99.90
20418;DHT22;10368;51.436;6.774;2023-04-30T08:54:54;12.80;99.90
20418;DHT22;10368;51.436;6.774;2023-04-30T08:57:23;12.90;99.90
20418;DHT22;10368;51.436;6.774;2023-04-30T08:59:49;12.90;99.90
20418;DHT22;10368;51.436;6.774;2023-04-30T09:02:16;12.90;99.90
20418;DHT22;10368;51.436;6.774;2023-04-30T09:04:44;13.10;99.90
20418;DHT22;10368;51.436;6.774;2023-04-30T09:07:12;13.30;99.90
20418;DHT22;10368;51.436;6.774;2023-04-30T09:09:40;13.30;99.90
20418;DHT22;10368;51.436;6.774;2023-04-30T09:12:14;13.10;99.90
20418;DHT22;10368;51.436;6.774;2023-04-30T09:15:02;13.20;99.90
20418;DHT22;10368;51.436;6.774;2023-04-30T09:17:31;13.10;99.90
20418;DHT22;10368;51.436;6.774;2023-04-30T09:20:08;13.30;99.90
20418;DHT22;10368;51.436;6.774;2023-04-30T09:22:38;13.40;99.90
20418;DHT22;10368;51.436;6.774;2023-04-30T09:25:06;13.50;99.90
20418;DHT22;10368;51.436;6.774;2023-04-30T09:27:33;13.70;99.90
20418;DHT22;10368;51.436;6.774;2023-04-30T09:30:00;13.80;99.90
20418;DHT22;10368;51.436;6.774;2023-04-30T09:32:27;13.90;99.90
20418;DHT22;10368;51.436;6.774;2023-04-30T09:34:55;14.10;99.90
20418;DHT22;10368;51.436;6.774;2023-04-30T09:37:22;14.10;99.90
20418;DHT22;10368;51.436;6.774;2023-04-30T09:40:00;14.20;99.90
20418;DHT22;10368;51.436;6.774;2023-04-30T09:42:27;14.30;99.90
20418;DHT22;10368;51.436;6.774;2023-04-30T09:44:54;14.30;99.90
20418;DHT22;10368;51.436;6.774;2023-04-30T09:47:21;14.40;99.90
20418;DHT22;10368;51.436;6.774;2023-04-30T09:49:51;14.40;99.90
20418;DHT22;10368;51.436;6.774;2023-04-30T09:52:19;14.50;99.90
20418;DHT22;10368;51.436;6.774;2023-04-30T09:54:47;14.40;99.90
20418;DHT22;10368;51.436;6.774;2023-04-30T09:57:14;14.60;99.90
20418;DHT22;10368;51.436;6.774;2023-04-30T09:59:44;14.70;99.90
20418;DHT22;10368;51.436;6.774;2023-04-30T10:02:14;14.80;99.90
20418;DHT22;10368;51.436;6.774;2023-04-30T10:04:50;15.00;99.90
20418;DHT22;10368;51.436;6.774;2023-04-30T10:07:24;15.10;99.90
20418;DHT22;10368;51.436;6.774;2023-04-30T10:09:57;15.00;99.90
20418;DHT22;10368;51.436;6.774;2023-04-30T10:12:29;15.10;99.90
20418;DHT22;10368;51.436;6.774;2023-04-30T10:15:15;15.20;99.90
20418;DHT22;10368;51.436;6.774;2023-04-30T10:17:46;15.30;99.90
20418;DHT22;10368;51.436;6.774;2023-04-30T10:20:16;15.40;99.90
20418;DHT22;10368;51.436;6.774;2023-04-30T10:22:46;15.40;99.90
20418;DHT22;10368;51.436;6.774;2023-04-30T10:25:16;15.50;99.90
20418;DHT22;10368;51.436;6.774;2023-04-30T10:27:42;15.60;99.90
20418;DHT22;10368;51.436;6.774;2023-04-30T10:30:10;15.60;99.90
20418;DHT22;10368;51.436;6.774;2023-04-30T10:35:30;16.00;99.90
20418;DHT22;10368;51.436;6.774;2023-04-30T10:38:34;16.20;99.90
20418;DHT22;10368;51.436;6.774;2023-04-30T10:41:01;16.40;99.90
20418;DHT22;10368;51.436;6.774;2023-04-30T10:43:32;16.80;99.90
20418;DHT22;10368;51.436;6.774;2023-04-30T11:28:36;17.70;96.30
20418;DHT22;10368;51.436;6.774;2023-04-30T11:31:04;20.00;89.00
20418;DHT22;10368;51.436;6.774;2023-04-30T11:33:32;19.90;85.40
20418;DHT22;10368;51.436;6.774;2023-04-30T11:36:00;20.40;85.40
20418;DHT22;10368;51.436;6.774;2023-04-30T11:38:35;19.40;85.40
20418;DHT22;10368;51.436;6.774;2023-04-30T11:41:03;20.30;81.40
20418;DHT22;10368;51.436;6.774;2023-04-30T11:43:31;20.90;89.60
20418;DHT22;10368;51.436;6.774;2023-04-30T12:18:28;20.20;85.20
20418;DHT22;10368;51.436;6.774;2023-04-30T12:20:58;21.50;94.00
20418;DHT22;10368;51.436;6.774;2023-04-30T12:23:25;22.10;82.90
20418;DHT22;10368;51.436;6.774;2023-04-30T12:25:52;22.30;69.20
20418;DHT22;10368;51.436;6.774;2023-04-30T12:28:21;22.00;68.60
20418;DHT22;10368;51.436;6.774;2023-04-30T12:30:48;21.10;69.20
20418;DHT22;10368;51.436;6.774;2023-04-30T12:33:17;20.80;72.90
20418;DHT22;10368;51.436;6.774;2023-04-30T12:35:44;20.60;73.40
20418;DHT22;10368;51.436;6.774;2023-04-30T12:38:15;20.90;72.00
20418;DHT22;10368;51.436;6.774;2023-04-30T12:40:47;21.00;73.10
20418;DHT22;10368;51.436;6.774;2023-04-30T12:43:16;21.30;75.00
20418;DHT22;10368;51.436;6.774;2023-04-30T12:45:52;21.50;72.50
20418;DHT22;10368;51.436;6.774;2023-04-30T12:48:21;22.10;67.50
20418;DHT22;10368;51.436;6.774;2023-04-30T12:50:54;20.80;71.30
20418;DHT22;10368;51.436;6.774;2023-04-30T12:53:21;21.20;69.60
20418;DHT22;10368;51.436;6.774;2023-04-30T16:45:58;21.50;71.90
20418;DHT22;10368;51.436;6.774;2023-04-30T16:48:25;19.50;72.00
20418;DHT22;10368;51.436;6.774;2023-04-30T16:50:52;19.70;72.20
20418;DHT22;10368;51.436;6.774;2023-04-30T16:53:19;19.50;71.00
20418;DHT22;10368;51.436;6.774;2023-04-30T16:55:47;19.20;71.40
20418;DHT22;10368;51.436;6.774;2023-04-30T16:58:14;19.20;71.00
20418;DHT22;10368;51.436;6.774;2023-04-30T17:00:42;19.30;72.00
20418;DHT22;10368;51.436;6.774;2023-04-30T17:03:09;19.60;73.90
20418;DHT22;10368;51.436;6.774;2023-04-30T17:05:36;19.30;72.90
20418;DHT22;10368;51.436;6.774;2023-04-30T17:08:03;19.30;72.30
20418;DHT22;10368;51.436;6.774;2023-04-30T17:10:31;19.00;74.20
20418;DHT22;10368;51.436;6.774;2023-04-30T17:12:57;19.30;74.00
20418;DHT22;10368;51.436;6.774;2023-04-30T17:15:27;19.30;71.60
20418;DHT22;10368;51.436;6.774;2023-04-30T17:17:55;19.20;73.00
20418;DHT22;10368;51.436;6.774;2023-04-30T17:20:22;19.20;72.50
20418;DHT22;10368;51.436;6.774;2023-04-30T17:22:49;18.80;72.20
20418;DHT22;10368;51.436;6.774;2023-04-30T17:25:16;18.80;73.90
20418;DHT22;10368;51.436;6.774;2023-04-30T17:27:43;18.90;74.50
20418;DHT22;10368;51.436;6.774;2023-04-30T17:30:10;18.50;74.60
20418;DHT22;10368;51.436;6.774;2023-04-30T17:32:37;18.40;75.60
20418;DHT22;10368;51.436;6.774;2023-04-30T17:35:05;18.40;74.80
20418;DHT22;10368;51.436;6.774;2023-04-30T17:37:32;18.60;75.60
20418;DHT22;10368;51.436;6.774;2023-04-30T17:40:00;18.10;75.60
20418;DHT22;10368;51.436;6.774;2023-04-30T17:42:27;18.00;76.80
20418;DHT22;10368;51.436;6.774;2023-04-30T17:44:56;18.20;76.70
20418;DHT22;10368;51.436;6.774;2023-04-30T17:47:23;18.20;75.90
20418;DHT22;10368;51.436;6.774;2023-04-30T17:49:50;18.20;76.60
20418;DHT22;10368;51.436;6.774;2023-04-30T17:52:17;18.10;77.00
20418;DHT22;10368;51.436;6.774;2023-04-30T17:54:44;18.10;76.30
20418;DHT22;10368;51.436;6.774;2023-04-30T17:57:11;17.90;76.60
20418;DHT22;10368;51.436;6.774;2023-04-30T17:59:37;17.80;77.40
20418;DHT22;10368;51.436;6.774;2023-04-30T18:02:05;18.00;76.90
20418;DHT22;10368;51.436;6.774;2023-04-30T18:04:33;17.70;77.10
20418;DHT22;10368;51.436;6.774;2023-04-30T18:07:00;17.90;77.20
20418;DHT22;10368;51.436;6.774;2023-04-30T18:09:27;17.80;77.80
20418;DHT22;10368;51.436;6.774;2023-04-30T18:11:53;17.60;78.50
20418;DHT22;10368;51.436;6.774;2023-04-30T18:14:22;17.60;78.40
20418;DHT22;10368;51.436;6.774;2023-04-30T18:16:49;17.50;78.50
20418;DHT22;10368;51.436;6.774;2023-04-30T18:19:16;17.40;78.50
20418;DHT22;10368;51.436;6.774;2023-04-30T18:21:46;17.50;78.90
20418;DHT22;10368;51.436;6.774;2023-04-30T18:24:13;17.50;78.50
20418;DHT22;10368;51.436;6.774;2023-04-30T18:26:40;17.30;79.80
20418;DHT22;10368;51.436;6.774;2023-04-30T18:29:06;17.20;79.20
20418;DHT22;10368;51.436;6.774;2023-04-30T18:31:34;17.30;78.50
20418;DHT22;10368;51.436;6.774;2023-04-30T18:34:02;17.10;80.50
20418;DHT22;10368;51.436;6.774;2023-04-30T18:36:29;17.10;79.70
20418;DHT22;10368;51.436;6.774;2023-04-30T18:38:56;17.10;79.80
20418;DHT22;10368;51.436;6.774;2023-04-30T18:41:25;17.00;80.10
20418;DHT22;10368;51.436;6.774;2023-04-30T18:43:52;16.80;80.40
20418;DHT22;10368;51.436;6.774;2023-04-30T18:46:19;16.90;80.20
20418;DHT22;10368;51.436;6.774;2023-04-30T18:48:46;16.90;80.00
20418;DHT22;10368;51.436;6.774;2023-04-30T18:51:13;16.80;80.70
20418;DHT22;10368;51.436;6.774;2023-04-30T18:53:40;16.80;79.90
20418;DHT22;10368;51.436;6.774;2023-04-30T18:56:07;16.70;80.60
20418;DHT22;10368;51.436;6.774;2023-04-30T18:58:34;16.80;80.50
20418;DHT22;10368;51.436;6.774;2023-04-30T19:01:01;16.50;81.40
20418;DHT22;10368;51.436;6.774;2023-04-30T19:03:30;16.50;81.60
20418;DHT22;10368;51.436;6.774;2023-04-30T19:05:57;16.40;81.80
20418;DHT22;10368;51.436;6.774;2023-04-30T19:08:24;16.40;82.60
20418;DHT22;10368;51.436;6.774;2023-04-30T19:10:51;16.20;81.90
20418;DHT22;10368;51.436;6.774;2023-04-30T19:13:19;16.20;82.50
20418;DHT22;10368;51.436;6.774;2023-04-30T19:15:46;16.20;82.50
20418;DHT22;10368;51.436;6.774;2023-04-30T19:18:15;16.00;83.40
20418;DHT22;10368;51.436;6.774;2023-04-30T19:20:42;16.00;84.00
20418;DHT22;10368;51.436;6.774;2023-04-30T19:23:09;16.10;83.40
20418;DHT22;10368;51.436;6.774;2023-04-30T19:25:36;15.90;83.50
20418;DHT22;10368;51.436;6.774;2023-04-30T19:28:03;15.90;84.00
20418;DHT22;10368;51.436;6.774;2023-04-30T19:30:30;15.90;84.00
20418;DHT22;10368;51.436;6.774;2023-04-30T19:32:57;15.80;84.20
20418;DHT22;10368;51.436;6.774;2023-04-30T19:35:23;15.80;83.40
20418;DHT22;10368;51.436;6.774;2023-04-30T19:37:50;15.80;84.60
20418;DHT22;10368;51.436;6.774;2023-04-30T19:40:20;15.60;85.10
20418;DHT22;10368;51.436;6.774;2023-04-30T19:42:48;15.60;85.70
20418;DHT22;10368;51.436;6.774;2023-04-30T19:45:15;15.70;85.20
20418;DHT22;10368;51.436;6.774;2023-04-30T19:47:42;15.60;85.00
20418;DHT22;10368;51.436;6.774;2023-04-30T19:50:09;15.60;85.40
20418;DHT22;10368;51.436;6.774;2023-04-30T19:52:36;15.50;85.80
20418;DHT22;10368;51.436;6.774;2023-04-30T19:55:03;15.40;86.70
